Time;durP1;ratioP1;P1;durP2;ratioP2;P2;SDS_P1;SDS_P2;PMS_P1;PMS_P2;Temp;Humidity;BMP_temperature;BMP_pressure;BME280_temperature;BME280_humidity;BME280_pressure;Samples;Min_cycle;Max_cycle;Signal;HPM_P1;HPM_P2
2022/10/27 00:01:52;;;;;;;;;;;;;;;;;;4972231;28;19961;-87
2022/10/27 00:04:18;;;;;;;;;;;;;;;;;;4979380;28;19918;-86
2022/10/27 00:06:44;;;;;;;;;;;;;;;;;;4954222;28;20709;-87
2022/10/27 00:09:10;;;;;;;;;;;;;;;;;;4969412;28;19956;-89
2022/10/27 00:11:37;;;;;;;;;;;;;;;;;;4987331;28;20319;-88
2022/10/27 00:14:03;;;;;;;;;;;;;;;;;;4970792;28;19922;-88
2022/10/27 00:16:29;;;;;;;;;;;;;;;;;;4989208;28;19961;-87
2022/10/27 00:18:56;;;;;;;;;;;;;;;;;;4989099;28;19968;-88
2022/10/27 00:21:23;;;;;;;;;;;;;;;;;;4989628;28;19972;-89
2022/10/27 00:23:49;;;;;;;;;;;;;;;;;;4990365;28;19953;-88
2022/10/27 00:26:15;;;;;;;;;;;;;;;;;;4989138;28;20501;-88
2022/10/27 00:28:41;;;;;;;;;;;;;;;;;;4966180;28;19961;-88
2022/10/27 00:31:07;;;;;;;;;;;;;;;;;;4987816;28;20380;-85
2022/10/27 00:33:34;;;;;;;;;;;;;;;;;;4970143;28;19968;-87
2022/10/27 00:36:00;;;;;;;;;;;;;;;;;;4976916;28;19922;-87
2022/10/27 00:38:26;;;;;;;;;;;;;;;;;;4992883;28;19961;-87
2022/10/27 00:40:52;;;;;;;;;;;;;;;;;;4970985;28;19969;-88
2022/10/27 00:43:18;;;;;;;;;;;;;;;;;;4986607;28;19992;-86
2022/10/27 00:45:44;;;;;;;;;;;;;;;;;;4984490;28;19969;-88
2022/10/27 00:48:11;;;;;;;;;;;;;;;;;;4985156;28;20418;-87
2022/10/27 00:50:37;;;;;;;;;;;;;;;;;;4974092;28;19980;-87
2022/10/27 00:53:03;;;;;;;;;;;;;;;;;;4989931;28;20414;-87
2022/10/27 00:55:29;;;;;;;;;;;;;;;;;;4969588;28;19976;-87
2022/10/27 00:57:55;;;;;;;;;;;;;;;;;;4954789;28;19926;-87
2022/10/27 01:00:22;;;;;;;;;;;;;;;;;;4990685;28;19956;-87
2022/10/27 01:02:48;;;;;;;;;;;;;;;;;;4985731;28;20349;-87
2022/10/27 01:05:14;;;;;;;;;;;;;;;;;;4983667;28;19961;-86
2022/10/27 01:07:40;;;;;;;;;;;;;;;;;;4987126;28;20464;-86
2022/10/27 01:10:06;;;;;;;;;;;;;;;;;;4986349;28;19953;-87
2022/10/27 01:12:33;;;;;;;;;;;;;;;;;;4986097;28;20228;-86
2022/10/27 01:14:59;;;;;;;;;;;;;;;;;;4987874;28;19925;-87
2022/10/27 01:17:25;;;;;;;;;;;;;;;;;;4986795;28;20415;-86
2022/10/27 01:19:51;;;;;;;;;;;;;;;;;;4990695;28;19952;-86
2022/10/27 01:22:17;;;;;;;;;;;;;;;;;;4965951;28;19941;-87
2022/10/27 01:24:44;;;;;;;;;;;;;;;;;;4996811;28;19957;-87
2022/10/27 01:27:10;;;;;;;;;;;;;;;;;;4971972;28;20052;-88
2022/10/27 01:29:36;;;;;;;;;;;;;;;;;;4959589;28;19980;-88
2022/10/27 01:32:02;;;;;;;;;;;;;;;;;;4987207;28;19956;-85
2022/10/27 01:34:28;;;;;;;;;;;;;;;;;;4964784;28;19962;-87
2022/10/27 01:36:54;;;;;;;;;;;;;;;;;;4967698;28;19914;-85
2022/10/27 01:39:21;;;;;;;;;;;;;;;;;;4950626;28;19961;-88
2022/10/27 01:41:47;;;;;;;;;;;;;;;;;;4984601;28;20492;-88
2022/10/27 01:44:13;;;;;;;;;;;;;;;;;;4966772;28;19949;-90
2022/10/27 01:46:39;;;;;;;;;;;;;;;;;;4969080;28;19972;-87
2022/10/27 01:49:05;;;;;;;;;;;;;;;;;;4957024;28;19968;-89
2022/10/27 01:51:32;;;;;;;;;;;;;;;;;;4966333;28;19961;-88
2022/10/27 01:53:58;;;;;;;;;;;;;;;;;;4970535;28;19941;-88
2022/10/27 01:56:25;;;;;;;;;;;;;;;;;;4985140;28;19961;-88
2022/10/27 01:58:51;;;;;;;;;;;;;;;;;;4971330;28;19918;-88
2022/10/27 02:01:17;;;;;;;;;;;;;;;;;;4975797;28;19945;-88
2022/10/27 02:03:43;;;;;;;;;;;;;;;;;;4965683;28;19942;-89
2022/10/27 02:06:09;;;;;;;;;;;;;;;;;;4982595;28;19960;-89
2022/10/27 02:08:36;;;;;;;;;;;;;;;;;;4958327;28;20342;-88
2022/10/27 02:11:02;;;;;;;;;;;;;;;;;;4985567;28;19983;-89
2022/10/27 02:13:28;;;;;;;;;;;;;;;;;;4968324;28;19965;-89
2022/10/27 02:15:54;;;;;;;;;;;;;;;;;;4969682;28;19914;-89
2022/10/27 02:18:20;;;;;;;;;;;;;;;;;;4969268;28;19950;-89
2022/10/27 02:20:46;;;;;;;;;;;;;;;;;;4970659;28;20651;-89
2022/10/27 02:23:13;;;;;;;;;;;;;;;;;;4953443;28;19972;-87
2022/10/27 02:25:39;;;;;;;;;;;;;;;;;;4985324;28;19949;-89
2022/10/27 02:28:05;;;;;;;;;;;;;;;;;;4970502;28;19979;-88
2022/10/27 02:30:31;;;;;;;;;;;;;;;;;;4988504;28;20056;-85
2022/10/27 02:32:57;;;;;;;;;;;;;;;;;;4986248;28;19961;-89
2022/10/27 02:35:24;;;;;;;;;;;;;;;;;;4982989;28;19949;-88
2022/10/27 02:37:50;;;;;;;;;;;;;;;;;;4986028;28;20419;-89
2022/10/27 02:40:16;;;;;;;;;;;;;;;;;;4984393;28;19957;-87
2022/10/27 02:42:42;;;;;;;;;;;;;;;;;;4988527;28;19960;-88
2022/10/27 02:45:08;;;;;;;;;;;;;;;;;;4986911;28;19971;-88
2022/10/27 02:47:35;;;;;;;;;;;;;;;;;;4986285;28;19966;-88
2022/10/27 02:50:01;;;;;;;;;;;;;;;;;;4970792;28;20334;-88
2022/10/27 02:52:27;;;;;;;;;;;;;;;;;;4990939;28;21456;-88
2022/10/27 02:54:53;;;;;;;;;;;;;;;;;;4973707;28;19922;-89
2022/10/27 02:57:19;;;;;;;;;;;;;;;;;;4989027;28;19922;-89
2022/10/27 02:59:46;;;;;;;;;;;;;;;;;;4979783;28;19953;-90
2022/10/27 03:02:12;;;;;;;;;;;;;;;;;;4972464;28;19968;-90
2022/10/27 03:04:38;;;;;;;;;;;;;;;;;;4990606;28;19969;-88
2022/10/27 03:07:04;;;;;;;;;;;;;;;;;;4973335;28;19980;-88
2022/10/27 03:09:30;;;;;;;;;;;;;;;;;;4981610;28;19920;-88
2022/10/27 03:11:56;;;;;;;;;;;;;;;;;;4961903;28;19953;-88
2022/10/27 03:14:23;;;;;;;;;;;;;;;;;;4991532;28;20465;-89
2022/10/27 03:16:49;;;;;;;;;;;;;;;;;;4976007;28;19918;-88
2022/10/27 03:19:15;;;;;;;;;;;;;;;;;;4997576;28;19929;-88
2022/10/27 03:21:41;;;;;;;;;;;;;;;;;;4994026;28;19953;-88
2022/10/27 03:24:07;;;;;;;;;;;;;;;;;;4982958;28;19914;-87
2022/10/27 03:26:34;;;;;;;;;;;;;;;;;;4973539;28;19949;-86
2022/10/27 03:29:00;;;;;;;;;;;;;;;;;;4974936;28;19945;-86
2022/10/27 03:31:26;;;;;;;;;;;;;;;;;;4991652;28;19957;-88
2022/10/27 03:33:52;;;;;;;;;;;;;;;;;;4974990;28;19953;-87
2022/10/27 03:36:18;;;;;;;;;;;;;;;;;;4958290;28;19914;-86
2022/10/27 03:38:45;;;;;;;;;;;;;;;;;;5003643;28;20397;-87
2022/10/27 03:41:11;;;;;;;;;;;;;;;;;;4997396;28;19968;-87
2022/10/27 03:43:37;;;;;;;;;;;;;;;;;;4973502;28;20389;-87
2022/10/27 03:46:03;;;;;;;;;;;;;;;;;;4990299;28;19953;-87
2022/10/27 03:48:29;;;;;;;;;;;;;;;;;;4989880;28;20009;-87
2022/10/27 03:50:55;;;;;;;;;;;;;;;;;;4971530;28;19953;-86
2022/10/27 03:53:22;;;;;;;;;;;;;;;;;;4971712;28;19953;-86
2022/10/27 03:55:48;;;;;;;;;;;;;;;;;;4986686;28;19956;-85
2022/10/27 03:58:14;;;;;;;;;;;;;;;;;;4986499;28;19945;-84
2022/10/27 04:00:40;;;;;;;;;;;;;;;;;;4970249;28;20442;-85
2022/10/27 04:03:07;;;;;;;;;;;;;;;;;;4988301;28;19952;-89
2022/10/27 04:05:33;;;;;;;;;;;;;;;;;;4954138;28;20374;-82
2022/10/27 04:07:59;;;;;;;;;;;;;;;;;;4984453;28;19981;-82
2022/10/27 04:10:25;;;;;;;;;;;;;;;;;;4969628;28;20331;-81
2022/10/27 04:12:51;;;;;;;;;;;;;;;;;;4989193;28;19930;-82
2022/10/27 04:15:17;;;;;;;;;;;;;;;;;;4969535;28;19941;-82
2022/10/27 04:17:44;;;;;;;;;;;;;;;;;;4970677;28;20438;-83
2022/10/27 04:20:10;;;;;;;;;;;;;;;;;;4986958;28;19964;-85
2022/10/27 04:22:36;;;;;;;;;;;;;;;;;;4984755;28;20362;-85
2022/10/27 04:25:02;;;;;;;;;;;;;;;;;;4969694;28;19922;-82
2022/10/27 04:27:28;;;;;;;;;;;;;;;;;;4985193;28;20670;-85
2022/10/27 04:29:55;;;;;;;;;;;;;;;;;;4983906;28;20083;-83
2022/10/27 04:32:21;;;;;;;;;;;;;;;;;;4987419;28;19926;-84
2022/10/27 04:34:49;;;;;;;;;;;;;;;;;;4986124;28;21453;-84
2022/10/27 04:37:15;;;;;;;;;;;;;;;;;;4984553;28;19960;-83
2022/10/27 04:39:41;;;;;;;;;;;;;;;;;;4969936;28;19961;-84
2022/10/27 04:42:08;;;;;;;;;;;;;;;;;;4987571;28;19917;-84
2022/10/27 04:44:34;;;;;;;;;;;;;;;;;;4969281;28;21771;-83
2022/10/27 04:47:00;;;;;;;;;;;;;;;;;;4989167;28;19961;-86
2022/10/27 04:49:26;;;;;;;;;;;;;;;;;;4988044;28;19953;-85
2022/10/27 04:51:52;;;;;;;;;;;;;;;;;;4964276;28;19960;-85
2022/10/27 04:54:19;;;;;;;;;;;;;;;;;;4983911;28;19964;-84
2022/10/27 04:56:45;;;;;;;;;;;;;;;;;;4989181;28;19960;-85
2022/10/27 04:59:11;;;;;;;;;;;;;;;;;;4969872;28;19952;-85
2022/10/27 05:01:37;;;;;;;;;;;;;;;;;;4986642;28;19965;-84
2022/10/27 05:04:03;;;;;;;;;;;;;;;;;;4971333;28;19975;-83
2022/10/27 05:06:29;;;;;;;;;;;;;;;;;;4968316;28;20280;-83
2022/10/27 05:08:56;;;;;;;;;;;;;;;;;;4986922;28;19941;-84
2022/10/27 05:11:22;;;;;;;;;;;;;;;;;;4985397;28;20445;-84
2022/10/27 05:13:48;;;;;;;;;;;;;;;;;;4985865;28;19957;-83
2022/10/27 05:16:14;;;;;;;;;;;;;;;;;;4985870;28;19922;-84
2022/10/27 05:18:40;;;;;;;;;;;;;;;;;;4985287;28;19957;-84
2022/10/27 05:21:06;;;;;;;;;;;;;;;;;;4986113;28;20566;-84
2022/10/27 05:23:33;;;;;;;;;;;;;;;;;;4969197;28;19964;-84
2022/10/27 05:25:59;;;;;;;;;;;;;;;;;;4994443;28;20441;-84
2022/10/27 05:28:25;;;;;;;;;;;;;;;;;;4987244;28;19961;-84
2022/10/27 05:30:51;;;;;;;;;;;;;;;;;;4967323;28;19965;-84
2022/10/27 05:33:17;;;;;;;;;;;;;;;;;;4985076;28;19918;-84
2022/10/27 05:35:44;;;;;;;;;;;;;;;;;;4983981;28;19957;-83
2022/10/27 05:38:11;;;;;;;;;;;;;;;;;;4984522;28;19992;-83
2022/10/27 05:40:37;;;;;;;;;;;;;;;;;;4978662;28;19960;-84
2022/10/27 05:43:03;;;;;;;;;;;;;;;;;;4965895;28;20056;-83
2022/10/27 05:45:29;;;;;;;;;;;;;;;;;;4970264;28;19961;-83
2022/10/27 05:47:56;;;;;;;;;;;;;;;;;;4986071;28;19965;-83
2022/10/27 05:50:22;;;;;;;;;;;;;;;;;;4983608;28;19990;-83
2022/10/27 05:52:48;;;;;;;;;;;;;;;;;;4983623;28;19968;-83
2022/10/27 05:55:14;;;;;;;;;;;;;;;;;;4986664;28;19964;-82
2022/10/27 05:57:40;;;;;;;;;;;;;;;;;;4968627;28;19918;-83
2022/10/27 06:00:07;;;;;;;;;;;;;;;;;;4985145;28;19949;-82
2022/10/27 06:02:33;;;;;;;;;;;;;;;;;;4985340;28;19949;-82
2022/10/27 06:04:59;;;;;;;;;;;;;;;;;;4989381;28;19949;-83
2022/10/27 06:07:25;;;;;;;;;;;;;;;;;;4966174;28;19973;-83
2022/10/27 06:09:51;;;;;;;;;;;;;;;;;;4984742;28;19954;-83
2022/10/27 06:12:18;;;;;;;;;;;;;;;;;;4968851;28;19953;-83
2022/10/27 06:14:44;;;;;;;;;;;;;;;;;;4986310;28;19972;-83
2022/10/27 06:17:10;;;;;;;;;;;;;;;;;;4981964;28;19957;-83
2022/10/27 06:19:36;;;;;;;;;;;;;;;;;;4983976;28;20060;-82
2022/10/27 06:22:02;;;;;;;;;;;;;;;;;;4968951;28;20284;-82
2022/10/27 06:24:29;;;;;;;;;;;;;;;;;;4967199;28;19961;-82
2022/10/27 06:26:55;;;;;;;;;;;;;;;;;;4984471;28;19969;-85
2022/10/27 06:29:21;;;;;;;;;;;;;;;;;;4984566;28;20433;-84
2022/10/27 06:31:47;;;;;;;;;;;;;;;;;;4971573;28;19926;-84
2022/10/27 06:34:13;;;;;;;;;;;;;;;;;;4965324;28;20382;-84
2022/10/27 06:36:39;;;;;;;;;;;;;;;;;;4985966;28;19973;-84
2022/10/27 06:39:06;;;;;;;;;;;;;;;;;;4985293;28;19965;-84
2022/10/27 06:41:32;;;;;;;;;;;;;;;;;;4967984;28;20437;-85
2022/10/27 06:43:58;;;;;;;;;;;;;;;;;;4984148;28;19956;-85
2022/10/27 06:46:25;;;;;;;;;;;;;;;;;;4984391;28;19953;-85
2022/10/27 06:48:51;;;;;;;;;;;;;;;;;;4951827;28;19930;-85
2022/10/27 06:51:17;;;;;;;;;;;;;;;;;;4983901;28;19961;-82
2022/10/27 06:53:43;;;;;;;;;;;;;;;;;;4967424;28;20485;-83
2022/10/27 06:56:09;;;;;;;;;;;;;;;;;;4984399;28;19965;-79
2022/10/27 06:58:38;;;;;;;;;;;;;;;;;;4983412;28;19921;-87
2022/10/27 07:01:05;;;;;;;;;;;;;;;;;;4987640;28;20016;-81
2022/10/27 07:03:34;;;;;;;;;;;;;;;;;;4980499;28;19953;-80
2022/10/27 07:06:00;;;;;;;;;;;;;;;;;;4966966;28;19918;-80
2022/10/27 07:08:26;;;;;;;;;;;;;;;;;;4950813;28;20365;-80
2022/10/27 07:10:52;;;;;;;;;;;;;;;;;;4968586;28;19952;-81
2022/10/27 07:13:18;;;;;;;;;;;;;;;;;;4967357;28;20016;-81
2022/10/27 07:15:44;;;;;;;;;;;;;;;;;;4951512;28;20004;-81
2022/10/27 07:18:11;;;;;;;;;;;;;;;;;;4983151;28;20368;-80
2022/10/27 07:20:40;;;;;;;;;;;;;;;;;;4984923;28;19964;-81
2022/10/27 07:23:06;;;;;;;;;;;;;;;;;;4967173;28;19961;-80
2022/10/27 07:25:32;;;;;;;;;;;;;;;;;;4978665;28;20680;-80
2022/10/27 07:28:00;;;;;;;;;;;;;;;;;;4967483;28;19972;-81
2022/10/27 07:30:26;;;;;;;;;;;;;;;;;;4974536;28;20543;-80
2022/10/27 07:32:53;;;;;;;;;;;;;;;;;;4964439;28;19921;-81
2022/10/27 07:35:19;;;;;;;;;;;;;;;;;;4984500;28;19964;-81
2022/10/27 07:37:45;;;;;;;;;;;;;;;;;;4969394;28;19914;-80
2022/10/27 07:40:11;;;;;;;;;;;;;;;;;;4967148;28;19957;-82
2022/10/27 07:42:37;;;;;;;;;;;;;;;;;;4986264;28;19957;-81
2022/10/27 07:45:04;;;;;;;;;;;;;;;;;;4970900;28;19953;-80
2022/10/27 07:47:30;;;;;;;;;;;;;;;;;;4974097;28;20378;-80
2022/10/27 07:49:56;;;;;;;;;;;;;;;;;;4969211;28;19954;-81
2022/10/27 07:52:22;;;;;;;;;;;;;;;;;;4987817;28;19926;-80
2022/10/27 07:54:48;;;;;;;;;;;;;;;;;;4988410;28;19964;-80
2022/10/27 07:57:15;;;;;;;;;;;;;;;;;;4953495;28;20424;-80
2022/10/27 07:59:41;;;;;;;;;;;;;;;;;;4985542;28;20008;-81
2022/10/27 08:02:07;;;;;;;;;;;;;;;;;;4971783;28;19918;-81
2022/10/27 08:04:33;;;;;;;;;;;;;;;;;;4975596;28;19938;-81
2022/10/27 08:06:59;;;;;;;;;;;;;;;;;;4972681;28;19980;-81
2022/10/27 08:09:26;;;;;;;;;;;;;;;;;;4984154;28;19971;-81
2022/10/27 08:11:52;;;;;;;;;;;;;;;;;;4953738;28;19983;-81
2022/10/27 08:14:18;;;;;;;;;;;;;;;;;;4976704;28;19922;-80
2022/10/27 08:16:44;;;;;;;;;;;;;;;;;;4987078;28;19961;-80
2022/10/27 08:19:11;;;;;;;;;;;;;;;;;;4987242;28;19942;-79
2022/10/27 08:21:37;;;;;;;;;;;;;;;;;;4978089;28;19957;-80
2022/10/27 08:24:03;;;;;;;;;;;;;;;;;;4988892;28;19998;-80
2022/10/27 08:26:29;;;;;;;;;;;;;;;;;;4967011;28;21068;-80
2022/10/27 08:28:56;;;;;;;;;;;;;;;;;;4969641;28;19926;-79
2022/10/27 08:31:23;;;;;;;;;;;;;;;;;;4991457;28;20547;-79
2022/10/27 08:33:49;;;;;;;;;;;;;;;;;;4958230;28;19969;-80
2022/10/27 08:36:15;;;;;;;;;;;;;;;;;;4986923;28;19938;-79
2022/10/27 08:38:42;;;;;;;;;;;;;;;;;;4986442;28;20389;-80
2022/10/27 08:41:08;;;;;;;;;;;;;;;;;;4987193;28;19953;-79
2022/10/27 08:43:35;;;;;;;;;;;;;;;;;;4983342;28;19921;-80
2022/10/27 08:46:01;;;;;;;;;;;;;;;;;;4971579;28;19984;-80
2022/10/27 08:48:27;;;;;;;;;;;;;;;;;;4966910;28;19933;-79
2022/10/27 08:50:53;;;;;;;;;;;;;;;;;;4983450;28;19957;-79
2022/10/27 08:53:19;;;;;;;;;;;;;;;;;;4969322;28;19981;-79
2022/10/27 08:55:45;;;;;;;;;;;;;;;;;;4987903;28;19953;-80
2022/10/27 08:58:12;;;;;;;;;;;;;;;;;;4985283;28;19980;-79
2022/10/27 09:00:38;;;;;;;;;;;;;;;;;;4964632;28;19945;-80
2022/10/27 09:03:04;;;;;;;;;;;;;;;;;;4987619;28;19945;-80
2022/10/27 09:05:30;;;;;;;;;;;;;;;;;;4964457;28;19969;-79
2022/10/27 09:07:57;;;;;;;;;;;;;;;;;;4986646;28;20054;-80
2022/10/27 09:10:23;;;;;;;;;;;;;;;;;;4970509;28;19965;-79
2022/10/27 09:12:49;;;;;;;;;;;;;;;;;;4971098;28;20384;-80
2022/10/27 09:15:16;;;;;;;;;;;;;;;;;;4968665;28;19925;-79
2022/10/27 09:17:42;;;;;;;;;;;;;;;;;;4988824;28;19969;-79
2022/10/27 09:20:08;;;;;;;;;;;;;;;;;;4987604;28;19949;-80
2022/10/27 09:22:36;;;;;;;;;;;;;;;;;;4968854;28;19972;-79
2022/10/27 09:25:02;;;;;;;;;;;;;;;;;;4988551;28;20436;-79
2022/10/27 09:27:28;;;;;;;;;;;;;;;;;;4955308;28;19964;-80
2022/10/27 09:29:55;;;;;;;;;;;;;;;;;;4987733;28;19965;-79
2022/10/27 09:32:21;;;;;;;;;;;;;;;;;;4969585;28;19964;-79
2022/10/27 09:34:47;;;;;;;;;;;;;;;;;;4977547;28;19949;-80
2022/10/27 09:37:14;;;;;;;;;;;;;;;;;;4986672;28;19965;-79
2022/10/27 09:39:40;;;;;;;;;;;;;;;;;;4991521;28;20020;-79
2022/10/27 09:42:06;;;;;;;;;;;;;;;;;;4970846;28;19956;-79
2022/10/27 09:44:33;;;;;;;;;;;;;;;;;;4974803;28;19953;-80
2022/10/27 09:46:59;;;;;;;;;;;;;;;;;;4985522;28;19953;-81
2022/10/27 09:49:25;;;;;;;;;;;;;;;;;;4966105;28;19996;-81
2022/10/27 09:51:52;;;;;;;;;;;;;;;;;;4967296;28;19929;-80
2022/10/27 09:54:18;;;;;;;;;;;;;;;;;;4976914;28;19961;-81
2022/10/27 09:56:44;;;;;;;;;;;;;;;;;;4990511;28;19925;-80
2022/10/27 09:59:10;;;;;;;;;;;;;;;;;;4985318;28;19953;-79
2022/10/27 10:01:36;;;;;;;;;;;;;;;;;;4986888;28;19972;-80
2022/10/27 10:04:03;;;;;;;;;;;;;;;;;;4971200;28;19924;-81
2022/10/27 10:06:29;;;;;;;;;;;;;;;;;;4985873;28;19957;-81
2022/10/27 10:08:55;;;;;;;;;;;;;;;;;;4983516;28;19957;-81
2022/10/27 10:11:21;;;;;;;;;;;;;;;;;;4968551;28;20011;-80
2022/10/27 10:13:47;;;;;;;;;;;;;;;;;;4975899;28;19964;-80
2022/10/27 10:16:14;;;;;;;;;;;;;;;;;;4969315;28;19964;-80
2022/10/27 10:18:40;;;;;;;;;;;;;;;;;;4991198;28;19945;-79
2022/10/27 10:21:07;;;;;;;;;;;;;;;;;;4972473;28;19965;-80
2022/10/27 10:23:33;;;;;;;;;;;;;;;;;;4960082;28;20020;-79
2022/10/27 10:25:59;;;;;;;;;;;;;;;;;;4985942;28;19984;-79
2022/10/27 10:28:26;;;;;;;;;;;;;;;;;;4987810;28;19973;-79
2022/10/27 10:30:52;;;;;;;;;;;;;;;;;;4970550;28;20003;-79
2022/10/27 10:33:18;;;;;;;;;;;;;;;;;;4984358;28;19964;-80
2022/10/27 10:35:44;;;;;;;;;;;;;;;;;;4979414;28;19953;-80
2022/10/27 10:38:10;;;;;;;;;;;;;;;;;;4985660;28;19964;-79
2022/10/27 10:40:37;;;;;;;;;;;;;;;;;;4985277;28;20025;-80
2022/10/27 10:43:03;;;;;;;;;;;;;;;;;;4952320;28;19998;-79
2022/10/27 10:45:29;;;;;;;;;;;;;;;;;;4966415;28;19965;-79
2022/10/27 10:47:55;;;;;;;;;;;;;;;;;;4984231;28;20345;-80
2022/10/27 10:50:22;;;;;;;;;;;;;;;;;;4967909;28;19969;-80
2022/10/27 10:52:48;;;;;;;;;;;;;;;;;;4973140;28;19918;-80
2022/10/27 10:55:14;;;;;;;;;;;;;;;;;;4978739;28;19988;-80
2022/10/27 10:57:41;;;;;;;;;;;;;;;;;;4989451;28;19957;-80
2022/10/27 11:00:07;;;;;;;;;;;;;;;;;;4970248;28;20406;-82
2022/10/27 11:02:33;;;;;;;;;;;;;;;;;;4985574;28;19972;-80
2022/10/27 11:05:00;;;;;;;;;;;;;;;;;;4985825;28;19972;-80
2022/10/27 11:07:26;;;;;;;;;;;;;;;;;;4955292;28;19984;-80
2022/10/27 11:09:52;;;;;;;;;;;;;;;;;;4986639;28;19960;-80
2022/10/27 11:12:18;;;;;;;;;;;;;;;;;;4990576;28;19969;-80
2022/10/27 11:14:44;;;;;;;;;;;;;;;;;;4957650;28;19951;-80
2022/10/27 11:17:11;;;;;;;;;;;;;;;;;;4968458;28;19953;-79
2022/10/27 11:19:37;;;;;;;;;;;;;;;;;;4975319;28;20484;-80
2022/10/27 11:22:03;;;;;;;;;;;;;;;;;;4993287;28;19926;-80
2022/10/27 11:24:30;;;;;;;;;;;;;;;;;;4980623;28;19942;-79
2022/10/27 11:26:56;;;;;;;;;;;;;;;;;;4976461;28;20045;-79
2022/10/27 11:29:22;;;;;;;;;;;;;;;;;;4987196;28;19958;-79
2022/10/27 11:31:48;;;;;;;;;;;;;;;;;;4991167;28;19980;-80
2022/10/27 11:34:14;;;;;;;;;;;;;;;;;;4976202;28;19953;-81
2022/10/27 11:36:41;;;;;;;;;;;;;;;;;;4981955;28;19970;-87
2022/10/27 11:39:07;;;;;;;;;;;;;;;;;;5006959;28;19928;-89
2022/10/27 11:41:33;;;;;;;;;;;;;;;;;;4987902;28;19929;-86
2022/10/27 11:43:59;;;;;;;;;;;;;;;;;;4971058;28;19929;-87
2022/10/27 11:46:25;;;;;;;;;;;;;;;;;;4996319;28;19922;-87
2022/10/27 11:48:52;;;;;;;;;;;;;;;;;;4978115;28;19957;-86
2022/10/27 11:51:18;;;;;;;;;;;;;;;;;;4983047;28;19960;-86
2022/10/27 11:53:44;;;;;;;;;;;;;;;;;;4978698;28;19921;-86
2022/10/27 11:56:10;;;;;;;;;;;;;;;;;;4974484;28;19973;-79
2022/10/27 11:58:36;;;;;;;;;;;;;;;;;;4990767;28;20017;-88
2022/10/27 12:01:03;;;;;;;;;;;;;;;;;;4992600;28;19921;-87
2022/10/27 12:03:29;;;;;;;;;;;;;;;;;;4991717;28;20004;-86
2022/10/27 12:05:55;;;;;;;;;;;;;;;;;;4973861;28;20348;-89
2022/10/27 12:08:21;;;;;;;;;;;;;;;;;;4972456;28;20048;-85
2022/10/27 12:10:48;;;;;;;;;;;;;;;;;;4987679;28;19946;-85
2022/10/27 12:13:14;;;;;;;;;;;;;;;;;;4970938;28;20011;-84
2022/10/27 12:15:40;;;;;;;;;;;;;;;;;;4988142;28;19953;-85
2022/10/27 12:18:06;;;;;;;;;;;;;;;;;;4972515;28;20358;-85
2022/10/27 12:20:32;;;;;;;;;;;;;;;;;;4984574;28;19965;-85
2022/10/27 12:22:58;;;;;;;;;;;;;;;;;;4988113;28;19957;-85
2022/10/27 12:25:25;;;;;;;;;;;;;;;;;;4988150;28;19914;-85
2022/10/27 12:27:53;;;;;;;;;;;;;;;;;;4970836;28;19953;-86
2022/10/27 12:30:20;;;;;;;;;;;;;;;;;;4987007;28;19967;-86
2022/10/27 12:32:46;;;;;;;;;;;;;;;;;;4970178;28;20000;-86
2022/10/27 12:35:12;;;;;;;;;;;;;;;;;;4986492;28;19964;-88
2022/10/27 12:37:38;;;;;;;;;;;;;;;;;;4971901;28;19961;-88
2022/10/27 12:40:04;;;;;;;;;;;;;;;;;;4988431;28;19969;-88
2022/10/27 12:42:30;;;;;;;;;;;;;;;;;;4955571;28;19962;-85
2022/10/27 12:44:57;;;;;;;;;;;;;;;;;;4968306;28;19980;-85
2022/10/27 12:47:23;;;;;;;;;;;;;;;;;;4983016;28;20060;-85
2022/10/27 12:49:49;;;;;;;;;;;;;;;;;;4967490;28;19984;-84
2022/10/27 12:52:15;;;;;;;;;;;;;;;;;;4986960;28;19965;-83
2022/10/27 12:54:41;;;;;;;;;;;;;;;;;;4988431;28;19960;-83
2022/10/27 12:57:08;;;;;;;;;;;;;;;;;;4985851;28;19921;-83
2022/10/27 12:59:34;;;;;;;;;;;;;;;;;;4968473;28;20000;-84
2022/10/27 13:02:00;;;;;;;;;;;;;;;;;;4992915;28;20304;-82
2022/10/27 13:04:27;;;;;;;;;;;;;;;;;;4986492;28;19921;-82
2022/10/27 13:06:53;;;;;;;;;;;;;;;;;;4956700;28;19917;-82
2022/10/27 13:09:19;;;;;;;;;;;;;;;;;;4982502;28;19969;-82
2022/10/27 13:11:45;;;;;;;;;;;;;;;;;;4989617;28;20023;-82
2022/10/27 13:14:12;;;;;;;;;;;;;;;;;;4971512;28;19922;-82
2022/10/27 13:16:38;;;;;;;;;;;;;;;;;;4970741;28;19952;-82
2022/10/27 13:19:04;;;;;;;;;;;;;;;;;;4964461;28;19926;-82
2022/10/27 13:21:30;;;;;;;;;;;;;;;;;;4985816;28;19957;-83
2022/10/27 13:23:56;;;;;;;;;;;;;;;;;;4971661;28;19960;-82
2022/10/27 13:26:22;;;;;;;;;;;;;;;;;;4979483;28;19961;-82
2022/10/27 13:28:49;;;;;;;;;;;;;;;;;;4987768;28;19971;-83
2022/10/27 13:31:15;;;;;;;;;;;;;;;;;;4955238;28;19958;-82
2022/10/27 13:33:41;;;;;;;;;;;;;;;;;;4969261;28;19980;-84
2022/10/27 13:36:07;;;;;;;;;;;;;;;;;;4968459;28;19976;-85
2022/10/27 13:38:33;;;;;;;;;;;;;;;;;;4985897;28;19976;-85
2022/10/27 13:41:00;;;;;;;;;;;;;;;;;;4983024;28;19953;-85
2022/10/27 13:43:26;;;;;;;;;;;;;;;;;;4983864;28;19988;-86
2022/10/27 13:45:52;;;;;;;;;;;;;;;;;;4985477;28;19964;-85
2022/10/27 13:48:18;;;;;;;;;;;;;;;;;;4969999;28;19977;-86
2022/10/27 13:50:44;;;;;;;;;;;;;;;;;;4984783;28;19964;-86
2022/10/27 13:53:10;;;;;;;;;;;;;;;;;;4986070;28;20372;-79
2022/10/27 13:55:38;;;;;;;;;;;;;;;;;;4984924;28;19968;-89
2022/10/27 13:58:04;;;;;;;;;;;;;;;;;;4969625;28;20294;-88
2022/10/27 14:00:31;;;;;;;;;;;;;;;;;;4969579;28;19957;-88
2022/10/27 14:02:57;;;;;;;;;;;;;;;;;;4986550;28;19960;-89
2022/10/27 14:05:23;;;;;;;;;;;;;;;;;;4980439;28;19964;-87
2022/10/27 14:07:49;;;;;;;;;;;;;;;;;;4971684;28;20415;-87
2022/10/27 14:10:15;;;;;;;;;;;;;;;;;;4984810;28;19968;-83
2022/10/27 14:12:42;;;;;;;;;;;;;;;;;;4975077;28;19956;-82
2022/10/27 14:15:08;;;;;;;;;;;;;;;;;;4968998;28;19945;-86
2022/10/27 14:17:34;;;;;;;;;;;;;;;;;;4986641;28;20032;-85
2022/10/27 14:20:00;;;;;;;;;;;;;;;;;;4981634;28;19957;-85
2022/10/27 14:22:26;;;;;;;;;;;;;;;;;;4977282;28;19960;-85
2022/10/27 14:24:52;;;;;;;;;;;;;;;;;;4984746;28;19976;-80
2022/10/27 14:27:19;;;;;;;;;;;;;;;;;;4973685;28;20048;-81
2022/10/27 14:29:45;;;;;;;;;;;;;;;;;;4984152;28;19983;-82
2022/10/27 14:32:11;;;;;;;;;;;;;;;;;;4982935;28;20362;-82
2022/10/27 14:34:38;;;;;;;;;;;;;;;;;;4982521;28;19953;-84
2022/10/27 14:37:04;;;;;;;;;;;;;;;;;;4968584;28;20672;-81
2022/10/27 14:39:30;;;;;;;;;;;;;;;;;;4983083;28;19965;-82
2022/10/27 14:41:56;;;;;;;;;;;;;;;;;;4980286;28;19953;-81
2022/10/27 14:44:22;;;;;;;;;;;;;;;;;;4981964;28;19953;-81
2022/10/27 14:46:49;;;;;;;;;;;;;;;;;;4985559;28;19972;-81
2022/10/27 14:49:15;;;;;;;;;;;;;;;;;;4987703;28;19926;-80
2022/10/27 14:51:41;;;;;;;;;;;;;;;;;;4979405;28;20017;-81
2022/10/27 14:54:08;;;;;;;;;;;;;;;;;;4988480;28;19952;-82
2022/10/27 14:56:34;;;;;;;;;;;;;;;;;;4987873;28;19953;-82
2022/10/27 14:59:00;;;;;;;;;;;;;;;;;;4969993;28;19949;-82
2022/10/27 15:01:26;;;;;;;;;;;;;;;;;;4987727;28;19961;-82
2022/10/27 15:03:53;;;;;;;;;;;;;;;;;;4969235;28;19952;-82
2022/10/27 15:06:19;;;;;;;;;;;;;;;;;;4986121;28;19961;-82
2022/10/27 15:08:45;;;;;;;;;;;;;;;;;;4986286;28;19968;-82
2022/10/27 15:11:11;;;;;;;;;;;;;;;;;;4969876;28;19968;-81
2022/10/27 15:13:37;;;;;;;;;;;;;;;;;;4986753;28;19964;-83
2022/10/27 15:16:06;;;;;;;;;;;;;;;;;;4988512;28;19945;-85
2022/10/27 15:18:32;;;;;;;;;;;;;;;;;;4986977;28;20266;-82
2022/10/27 15:20:59;;;;;;;;;;;;;;;;;;4986500;28;19933;-83
2022/10/27 15:23:25;;;;;;;;;;;;;;;;;;4969670;28;19946;-82
2022/10/27 15:25:51;;;;;;;;;;;;;;;;;;4977736;28;20028;-81
2022/10/27 15:28:17;;;;;;;;;;;;;;;;;;4985742;28;20047;-86
2022/10/27 15:30:44;;;;;;;;;;;;;;;;;;4987769;28;19972;-86
2022/10/27 15:33:10;;;;;;;;;;;;;;;;;;4992200;28;20342;-86
2022/10/27 15:35:36;;;;;;;;;;;;;;;;;;4985514;28;19957;-86
2022/10/27 15:38:02;;;;;;;;;;;;;;;;;;4989281;28;19964;-86
2022/10/27 15:40:31;;;;;;;;;;;;;;;;;;4988992;28;19953;-86
2022/10/27 15:42:57;;;;;;;;;;;;;;;;;;4968636;28;19965;-85
2022/10/27 15:45:24;;;;;;;;;;;;;;;;;;4986258;28;19953;-85
2022/10/27 15:47:50;;;;;;;;;;;;;;;;;;4987266;28;20301;-85
2022/10/27 15:50:16;;;;;;;;;;;;;;;;;;4983417;28;19969;-85
2022/10/27 15:52:42;;;;;;;;;;;;;;;;;;4970846;28;19950;-85
2022/10/27 15:55:08;;;;;;;;;;;;;;;;;;4971126;28;19957;-86
2022/10/27 15:57:35;;;;;;;;;;;;;;;;;;4988705;28;19957;-85
2022/10/27 16:00:01;;;;;;;;;;;;;;;;;;4971510;28;19956;-85
2022/10/27 16:02:27;;;;;;;;;;;;;;;;;;4988351;28;19953;-86
2022/10/27 16:04:53;;;;;;;;;;;;;;;;;;4987508;28;19957;-86
2022/10/27 16:07:19;;;;;;;;;;;;;;;;;;4969241;28;20266;-85
2022/10/27 16:09:45;;;;;;;;;;;;;;;;;;4970995;28;19980;-85
2022/10/27 16:12:12;;;;;;;;;;;;;;;;;;4987950;28;20416;-81
2022/10/27 16:14:38;;;;;;;;;;;;;;;;;;4955638;28;19956;-85
2022/10/27 16:17:04;;;;;;;;;;;;;;;;;;4987289;28;19926;-85
2022/10/27 16:19:31;;;;;;;;;;;;;;;;;;4988564;28;19961;-85
2022/10/27 16:21:57;;;;;;;;;;;;;;;;;;4989282;28;19922;-85
2022/10/27 16:24:23;;;;;;;;;;;;;;;;;;4989118;28;19965;-85
2022/10/27 16:26:51;;;;;;;;;;;;;;;;;;4992170;28;19960;-85
2022/10/27 16:29:18;;;;;;;;;;;;;;;;;;4987872;28;19984;-85
2022/10/27 16:31:44;;;;;;;;;;;;;;;;;;4985987;28;20009;-85
2022/10/27 16:34:10;;;;;;;;;;;;;;;;;;4987566;28;19968;-85
2022/10/27 16:36:36;;;;;;;;;;;;;;;;;;4972775;28;20358;-85
2022/10/27 16:39:03;;;;;;;;;;;;;;;;;;4987312;28;19977;-85